createdAt,value
2018-08-12T00:01:39.820Z,99.90
2018-08-12T00:04:07.946Z,99.90
2018-08-12T00:06:36.045Z,99.90
2018-08-12T00:09:07.398Z,99.90
2018-08-12T00:11:35.522Z,99.90
2018-08-12T00:14:03.624Z,99.90
2018-08-12T00:16:31.756Z,99.90
2018-08-12T00:18:59.834Z,99.90
2018-08-12T00:21:27.917Z,99.90
2018-08-12T00:23:56.058Z,99.90
2018-08-12T00:26:24.135Z,99.90
2018-08-12T00:28:52.206Z,99.90
2018-08-12T00:31:20.281Z,99.90
2018-08-12T00:33:48.365Z,99.90
2018-08-12T00:36:16.446Z,99.90
2018-08-12T00:38:44.572Z,99.90
2018-08-12T00:41:12.688Z,99.90
2018-08-12T00:43:40.783Z,99.90
2018-08-12T00:46:08.865Z,99.90
2018-08-12T00:48:36.938Z,99.90
2018-08-12T00:51:05.316Z,99.90
2018-08-12T00:53:33.593Z,99.90
2018-08-12T00:56:01.929Z,99.90
2018-08-12T00:58:30.242Z,99.90
2018-08-12T01:00:58.574Z,99.90
2018-08-12T01:06:17.311Z,99.90
2018-08-12T01:08:45.445Z,99.90
2018-08-12T01:11:13.562Z,99.90
2018-08-12T01:13:41.669Z,99.90
2018-08-12T01:16:09.789Z,99.90
2018-08-12T01:18:37.891Z,99.90
2018-08-12T01:21:24.107Z,99.90
2018-08-12T01:23:52.229Z,99.90
2018-08-12T01:26:20.613Z,99.90
2018-08-12T01:28:48.753Z,99.90
2018-08-12T01:31:16.875Z,99.90
2018-08-12T01:33:45.024Z,99.90
2018-08-12T01:36:13.159Z,99.90
2018-08-12T01:38:41.258Z,99.90
2018-08-12T01:41:09.366Z,99.90
2018-08-12T01:43:37.502Z,99.90
2018-08-12T01:46:05.626Z,99.90
2018-08-12T01:48:33.743Z,99.90
2018-08-12T01:51:01.841Z,99.90
2018-08-12T01:53:29.948Z,99.90
2018-08-12T01:55:58.053Z,99.90
2018-08-12T01:58:26.154Z,99.90
2018-08-12T02:00:54.262Z,99.90
2018-08-12T02:03:22.414Z,99.90
2018-08-12T02:05:50.527Z,99.90
2018-08-12T02:08:18.692Z,99.90
2018-08-12T02:10:46.801Z,99.90
2018-08-12T02:13:14.945Z,99.90
2018-08-12T02:15:43.149Z,99.90
2018-08-12T02:18:11.265Z,99.90
2018-08-12T02:20:39.385Z,99.90
2018-08-12T02:23:07.524Z,99.90
2018-08-12T02:25:35.629Z,99.90
2018-08-12T02:28:03.746Z,99.90
2018-08-12T02:30:31.862Z,99.90
2018-08-12T02:32:59.969Z,99.90
2018-08-12T02:35:28.084Z,99.90
2018-08-12T02:37:56.238Z,99.90
2018-08-12T02:40:24.346Z,99.90
2018-08-12T02:42:52.509Z,99.90
2018-08-12T02:45:20.646Z,99.90
2018-08-12T02:47:48.786Z,99.90
2018-08-12T02:50:16.895Z,99.90
2018-08-12T02:52:45.018Z,99.90
2018-08-12T02:55:13.153Z,99.90
2018-08-12T02:57:48.188Z,99.90
2018-08-12T03:00:16.278Z,99.90
2018-08-12T03:02:44.407Z,99.90
2018-08-12T03:05:12.523Z,99.90
2018-08-12T03:07:40.645Z,99.90
2018-08-12T03:10:09.455Z,99.90
2018-08-12T03:12:37.937Z,99.90
2018-08-12T03:15:08.064Z,99.90
2018-08-12T03:17:36.254Z,99.90
2018-08-12T03:20:05.802Z,99.90
2018-08-12T03:22:34.019Z,99.90
2018-08-12T03:25:02.121Z,99.90
2018-08-12T03:27:30.232Z,99.90
2018-08-12T03:29:58.388Z,99.90
2018-08-12T03:32:26.491Z,99.90
2018-08-12T03:34:54.623Z,99.90
2018-08-12T03:37:22.777Z,99.90
2018-08-12T03:39:50.894Z,99.90
2018-08-12T03:42:19.053Z,99.90
2018-08-12T03:44:47.203Z,99.90
2018-08-12T03:47:15.322Z,99.90
2018-08-12T03:49:43.494Z,99.90
2018-08-12T03:52:11.642Z,99.90
2018-08-12T03:54:39.767Z,99.90
2018-08-12T03:57:07.913Z,99.90
2018-08-12T03:59:36.033Z,99.90
2018-08-12T04:02:04.158Z,99.90
2018-08-12T04:04:32.331Z,99.90
2018-08-12T04:07:00.504Z,99.90
2018-08-12T04:09:28.617Z,99.90
2018-08-12T04:11:56.750Z,99.90
2018-08-12T04:14:24.890Z,99.90
2018-08-12T04:16:57.715Z,99.90
2018-08-12T04:19:25.831Z,99.90
2018-08-12T04:21:53.987Z,99.90
2018-08-12T04:24:22.161Z,99.90
2018-08-12T04:26:50.405Z,99.90
2018-08-12T04:29:18.505Z,99.90
2018-08-12T04:31:46.611Z,99.90
2018-08-12T04:34:14.751Z,99.90
2018-08-12T04:36:43.034Z,99.90
2018-08-12T04:39:12.790Z,99.90
2018-08-12T04:41:41.988Z,99.90
2018-08-12T04:44:10.126Z,99.90
2018-08-12T04:46:38.745Z,99.90
2018-08-12T04:49:08.070Z,99.90
2018-08-12T04:51:36.222Z,99.90
2018-08-12T04:54:04.497Z,99.90
2018-08-12T04:56:32.638Z,99.90
2018-08-12T04:59:00.738Z,99.90
2018-08-12T05:01:28.868Z,99.90
2018-08-12T05:03:57.013Z,99.90
2018-08-12T05:06:25.163Z,99.90
2018-08-12T05:08:53.322Z,99.90
2018-08-12T05:11:21.430Z,99.90
2018-08-12T05:13:49.592Z,99.90
2018-08-12T05:16:17.721Z,99.90
2018-08-12T05:18:45.929Z,99.90
2018-08-12T05:21:14.050Z,99.90
2018-08-12T05:23:42.207Z,99.90
2018-08-12T05:26:10.311Z,99.90
2018-08-12T05:28:38.445Z,99.90
2018-08-12T05:31:06.590Z,99.90
2018-08-12T05:33:34.945Z,99.90
2018-08-12T05:36:03.100Z,99.90
2018-08-12T05:38:31.337Z,99.90
2018-08-12T05:40:59.590Z,99.90
2018-08-12T05:43:27.737Z,99.90
2018-08-12T05:45:55.869Z,99.90
2018-08-12T05:48:24.044Z,99.90
2018-08-12T05:50:52.171Z,99.90
2018-08-12T05:53:20.339Z,99.90
2018-08-12T05:55:48.642Z,99.90
2018-08-12T05:58:16.782Z,99.90
2018-08-12T06:00:44.946Z,99.90
2018-08-12T06:03:13.252Z,99.90
2018-08-12T06:05:41.466Z,99.90
2018-08-12T06:08:09.606Z,99.90
2018-08-12T06:10:38.755Z,99.90
2018-08-12T06:13:06.892Z,99.90
2018-08-12T06:15:35.074Z,99.90
2018-08-12T06:18:03.663Z,99.90
2018-08-12T06:20:31.846Z,99.90
2018-08-12T06:23:00.041Z,99.90
2018-08-12T06:25:28.749Z,99.90
2018-08-12T06:27:56.907Z,99.90
2018-08-12T06:30:25.049Z,99.90
2018-08-12T06:32:53.274Z,99.90
2018-08-12T06:35:21.427Z,99.90
2018-08-12T06:37:49.567Z,99.90
2018-08-12T06:40:17.677Z,99.90
2018-08-12T06:42:46.684Z,99.90
2018-08-12T06:45:17.106Z,99.90
2018-08-12T06:47:46.405Z,99.90
2018-08-12T06:50:15.566Z,99.90
2018-08-12T06:52:44.141Z,96.30
2018-08-12T06:55:13.165Z,91.40
2018-08-12T06:57:41.925Z,90.70
2018-08-12T07:00:15.837Z,85.50
2018-08-12T07:02:44.663Z,81.30
2018-08-12T07:05:12.906Z,82.30
2018-08-12T07:07:41.025Z,80.80
2018-08-12T07:10:13.166Z,77.40
2018-08-12T07:12:41.513Z,76.90
2018-08-12T07:15:12.475Z,72.60
2018-08-12T07:17:41.570Z,69.60
2018-08-12T07:20:10.694Z,69.30
2018-08-12T07:22:38.994Z,70.40
2018-08-12T07:25:08.442Z,74.00
2018-08-12T07:27:36.703Z,72.40
2018-08-12T07:30:06.836Z,72.20
2018-08-12T07:32:35.053Z,69.70
2018-08-12T07:35:03.198Z,74.30
2018-08-12T07:37:31.504Z,65.60
2018-08-12T07:39:59.647Z,61.40
2018-08-12T07:42:27.769Z,58.20
2018-08-12T07:44:55.904Z,57.40
2018-08-12T07:47:24.054Z,53.50
2018-08-12T07:49:52.154Z,52.40
2018-08-12T07:52:20.261Z,54.40
2018-08-12T07:54:48.561Z,51.20
2018-08-12T07:57:16.785Z,49.90
2018-08-12T07:59:44.880Z,49.70
2018-08-12T08:02:12.995Z,50.40
2018-08-12T08:04:41.082Z,49.00
2018-08-12T08:07:09.233Z,47.70
2018-08-12T08:09:37.309Z,48.20
2018-08-12T08:12:05.392Z,47.90
2018-08-12T08:14:33.535Z,46.60
2018-08-12T08:17:01.637Z,47.80
2018-08-12T08:19:29.736Z,49.80
2018-08-12T08:21:57.853Z,49.40
2018-08-12T08:24:25.941Z,47.50
2018-08-12T08:26:54.026Z,45.20
2018-08-12T08:29:22.117Z,44.50
2018-08-12T08:31:50.501Z,45.40
2018-08-12T08:34:18.296Z,44.80
2018-08-12T08:36:46.428Z,44.80
2018-08-12T08:39:14.830Z,44.30
2018-08-12T08:41:43.238Z,43.80
2018-08-12T08:44:11.422Z,43.90
2018-08-12T08:46:39.723Z,41.80
2018-08-12T08:49:07.838Z,44.00
2018-08-12T08:51:35.949Z,44.50
2018-08-12T08:54:04.037Z,44.30
2018-08-12T08:56:32.249Z,42.90
2018-08-12T08:59:00.345Z,42.20
2018-08-12T09:01:28.514Z,42.50
2018-08-12T09:03:56.542Z,42.50
2018-08-12T09:06:24.655Z,41.40
2018-08-12T09:08:52.940Z,42.40
2018-08-12T09:11:20.852Z,41.40
2018-08-12T09:13:48.955Z,41.10
2018-08-12T09:16:17.056Z,41.20
2018-08-12T09:18:45.149Z,43.10
2018-08-12T09:21:13.248Z,44.70
2018-08-12T09:23:41.370Z,43.40
2018-08-12T09:26:09.515Z,44.20
2018-08-12T09:28:37.657Z,42.30
2018-08-12T09:31:06.281Z,41.80
2018-08-12T09:33:34.366Z,41.80
2018-08-12T09:36:02.468Z,39.60
2018-08-12T09:38:30.585Z,42.40
2018-08-12T09:40:58.673Z,40.40
2018-08-12T09:43:26.769Z,41.20
2018-08-12T09:45:54.872Z,41.00
2018-08-12T09:48:23.028Z,39.80
2018-08-12T09:50:51.113Z,39.00
2018-08-12T09:53:19.198Z,38.90
2018-08-12T09:55:47.309Z,38.60
2018-08-12T09:58:15.398Z,40.40
2018-08-12T10:00:43.502Z,40.70
2018-08-12T10:03:11.592Z,39.90
2018-08-12T10:05:39.716Z,38.30
2018-08-12T10:08:07.808Z,36.20
2018-08-12T10:10:35.986Z,36.50
2018-08-12T10:13:04.387Z,36.60
2018-08-12T10:15:32.567Z,38.00
2018-08-12T10:18:02.182Z,37.80
2018-08-12T10:20:30.297Z,36.90
2018-08-12T10:22:58.498Z,38.20
2018-08-12T10:25:26.610Z,37.30
2018-08-12T10:27:54.721Z,37.10
2018-08-12T10:30:22.849Z,35.80
2018-08-12T10:32:50.938Z,34.70
2018-08-12T10:35:19.030Z,32.60
2018-08-12T10:37:47.145Z,33.50
2018-08-12T10:40:16.834Z,34.10
2018-08-12T10:42:45.844Z,34.30
2018-08-12T10:45:14.061Z,35.90
2018-08-12T10:47:42.571Z,34.80
2018-08-12T10:50:12.939Z,34.90
2018-08-12T10:52:42.144Z,36.00
2018-08-12T10:55:11.019Z,35.20
2018-08-12T10:57:39.377Z,35.60
2018-08-12T11:00:22.286Z,35.60
2018-08-12T11:02:50.392Z,34.70
2018-08-12T11:05:18.769Z,35.20
2018-08-12T11:07:49.395Z,34.40
2018-08-12T11:10:17.516Z,35.60
2018-08-12T11:12:45.609Z,34.70
2018-08-12T11:15:13.697Z,34.10
2018-08-12T11:17:41.905Z,36.10
2018-08-12T11:20:10.385Z,37.50
2018-08-12T11:22:38.508Z,35.20
2018-08-12T11:25:07.993Z,34.80
2018-08-12T11:27:36.104Z,35.60
2018-08-12T11:30:07.124Z,35.90
2018-08-12T11:32:35.214Z,36.70
2018-08-12T11:35:03.338Z,35.20
2018-08-12T11:37:31.468Z,35.70
2018-08-12T11:39:59.569Z,36.00
2018-08-12T11:42:27.674Z,35.70
2018-08-12T11:44:55.779Z,35.50
2018-08-12T11:47:23.919Z,34.80
2018-08-12T11:49:51.977Z,35.80
2018-08-12T11:52:20.087Z,37.10
2018-08-12T11:54:48.197Z,36.50
2018-08-12T11:57:16.269Z,35.80
2018-08-12T11:59:44.363Z,36.60
2018-08-12T12:02:12.501Z,36.60
2018-08-12T12:04:40.601Z,36.60
2018-08-12T12:07:08.837Z,37.90
2018-08-12T12:09:36.934Z,36.00
2018-08-12T12:12:05.153Z,35.30
2018-08-12T12:14:33.417Z,34.70
2018-08-12T12:17:01.580Z,36.20
2018-08-12T12:19:29.677Z,36.20
2018-08-12T12:21:57.922Z,35.20
2018-08-12T12:24:26.345Z,35.60
2018-08-12T12:26:54.497Z,35.80
2018-08-12T12:29:22.601Z,36.20
2018-08-12T12:31:50.705Z,36.30
2018-08-12T12:34:18.808Z,37.10
2018-08-12T12:36:46.920Z,36.20
2018-08-12T12:39:15.038Z,36.10
2018-08-12T12:41:43.153Z,34.10
2018-08-12T12:44:11.270Z,33.90
2018-08-12T12:46:39.365Z,33.60
2018-08-12T12:49:07.505Z,35.00
2018-08-12T12:51:35.591Z,34.70
2018-08-12T12:54:03.690Z,35.30
2018-08-12T12:56:31.838Z,34.40
2018-08-12T12:59:02.271Z,33.50
2018-08-12T13:01:30.366Z,34.30
2018-08-12T13:03:58.449Z,33.90
2018-08-12T13:06:26.535Z,34.00
2018-08-12T13:08:54.638Z,33.90
2018-08-12T13:11:22.726Z,33.60
2018-08-12T13:13:50.830Z,33.40
2018-08-12T13:16:18.901Z,33.90
2018-08-12T13:18:47.048Z,34.10
2018-08-12T13:21:15.101Z,33.90
2018-08-12T13:23:43.185Z,31.90
2018-08-12T13:26:11.296Z,31.30
2018-08-12T13:28:39.378Z,33.50
2018-08-12T13:31:07.505Z,31.20
2018-08-12T13:33:35.593Z,31.60
2018-08-12T13:36:03.705Z,32.20
2018-08-12T13:38:32.461Z,32.70
2018-08-12T13:41:00.553Z,31.50
2018-08-12T13:43:28.681Z,33.60
2018-08-12T13:45:56.747Z,32.30
2018-08-12T13:48:24.820Z,32.80
2018-08-12T13:50:52.936Z,32.90
2018-08-12T13:53:21.030Z,32.50
2018-08-12T13:55:49.153Z,32.50
2018-08-12T13:58:17.233Z,32.70
2018-08-12T14:00:45.338Z,33.60
2018-08-12T14:03:13.434Z,32.90
2018-08-12T14:05:41.534Z,33.60
2018-08-12T14:08:09.622Z,33.10
2018-08-12T14:10:37.737Z,33.10
2018-08-12T14:13:05.817Z,33.40
2018-08-12T14:15:33.918Z,33.80
2018-08-12T14:18:02.022Z,34.10
2018-08-12T14:20:30.147Z,35.10
2018-08-12T14:22:58.237Z,34.90
2018-08-12T14:25:26.329Z,33.80
2018-08-12T14:27:54.426Z,33.90
2018-08-12T14:30:23.069Z,34.40
2018-08-12T14:32:51.297Z,34.60
2018-08-12T14:35:19.501Z,34.40
2018-08-12T14:37:47.589Z,35.70
2018-08-12T14:40:15.905Z,35.50
2018-08-12T14:42:44.226Z,36.10
2018-08-12T14:45:13.303Z,34.90
2018-08-12T14:47:41.602Z,35.00
2018-08-12T14:50:13.246Z,35.80
2018-08-12T14:52:41.413Z,35.90
2018-08-12T14:55:10.316Z,35.30
2018-08-12T14:57:38.713Z,34.80
2018-08-12T15:00:08.873Z,36.40
2018-08-12T15:02:36.953Z,35.20
2018-08-12T15:05:05.259Z,36.10
2018-08-12T15:07:33.364Z,36.10
2018-08-12T15:10:01.461Z,36.90
2018-08-12T15:12:29.566Z,37.60
2018-08-12T15:14:58.770Z,37.50
2018-08-12T15:17:26.865Z,37.20
2018-08-12T15:19:54.975Z,37.50
2018-08-12T15:22:23.125Z,37.70
2018-08-12T15:24:51.173Z,38.70
2018-08-12T15:27:19.283Z,38.20
2018-08-12T15:29:47.365Z,37.70
2018-08-12T15:32:15.473Z,37.70
2018-08-12T15:34:43.573Z,37.80
2018-08-12T15:37:11.672Z,37.80
2018-08-12T15:39:39.789Z,38.40
2018-08-12T15:42:07.890Z,38.30
2018-08-12T15:44:36.006Z,37.80
2018-08-12T15:47:04.101Z,38.70
2018-08-12T15:49:32.182Z,38.30
2018-08-12T15:52:00.257Z,38.90
2018-08-12T15:54:28.365Z,39.30
2018-08-12T15:56:56.564Z,38.60
2018-08-12T15:59:24.586Z,39.20
2018-08-12T16:01:52.686Z,39.50
2018-08-12T16:04:20.889Z,39.10
2018-08-12T16:06:49.009Z,38.70
2018-08-12T16:09:17.102Z,38.30
2018-08-12T16:11:45.203Z,39.40
2018-08-12T16:14:14.210Z,41.20
2018-08-12T16:16:42.317Z,38.60
2018-08-12T16:19:10.410Z,40.60
2018-08-12T16:21:38.509Z,39.70
2018-08-12T16:24:06.678Z,40.20
2018-08-12T16:26:34.732Z,41.40
2018-08-12T16:29:02.853Z,39.40
2018-08-12T16:31:31.019Z,39.70
2018-08-12T16:33:59.123Z,39.90
2018-08-12T16:36:27.253Z,39.70
2018-08-12T16:38:55.377Z,40.80
2018-08-12T16:41:23.494Z,40.90
2018-08-12T16:43:51.594Z,41.90
2018-08-12T16:46:19.682Z,41.80
2018-08-12T16:48:47.770Z,42.20
2018-08-12T16:51:15.882Z,41.10
2018-08-12T16:53:43.970Z,41.90
2018-08-12T16:56:12.108Z,42.60
2018-08-12T16:58:40.160Z,42.40
2018-08-12T17:01:08.253Z,42.90
2018-08-12T17:03:36.366Z,44.70
2018-08-12T17:06:04.480Z,42.50
2018-08-12T17:08:32.578Z,45.90
2018-08-12T17:11:00.693Z,49.50
2018-08-12T17:13:28.825Z,49.20
2018-08-12T17:15:56.938Z,50.30
2018-08-12T17:18:25.032Z,51.50
2018-08-12T17:20:53.121Z,51.30
2018-08-12T17:23:21.226Z,53.30
2018-08-12T17:25:49.386Z,54.00
2018-08-12T17:28:17.425Z,53.40
2018-08-12T17:30:45.509Z,52.70
2018-08-12T17:33:13.603Z,52.30
2018-08-12T17:35:41.739Z,57.30
2018-08-12T17:38:09.845Z,59.80
2018-08-12T17:40:37.969Z,64.40
2018-08-12T17:43:08.105Z,70.80
2018-08-12T17:45:36.213Z,67.50
2018-08-12T17:48:04.436Z,59.70
2018-08-12T17:50:32.550Z,58.30
2018-08-12T17:53:00.792Z,59.70
2018-08-12T17:55:28.928Z,67.00
2018-08-12T17:57:57.034Z,68.80
2018-08-12T18:00:25.152Z,72.60
2018-08-12T18:02:53.292Z,79.30
2018-08-12T18:05:21.415Z,87.00
2018-08-12T18:07:49.528Z,86.90
2018-08-12T18:10:17.647Z,92.30
2018-08-12T18:12:45.833Z,94.70
2018-08-12T18:15:13.930Z,95.00
2018-08-12T18:17:42.683Z,97.90
2018-08-12T18:20:10.950Z,99.30
2018-08-12T18:22:39.089Z,99.90
2018-08-12T18:25:09.625Z,99.90
2018-08-12T18:27:37.794Z,99.90
2018-08-12T18:30:08.326Z,99.90
2018-08-12T18:32:36.506Z,99.90
2018-08-12T18:35:06.077Z,99.90
2018-08-12T18:37:34.260Z,99.90
2018-08-12T18:40:02.426Z,99.90
2018-08-12T18:42:30.617Z,99.90
2018-08-12T18:47:49.119Z,99.90
2018-08-12T18:50:17.289Z,99.90
2018-08-12T18:52:45.418Z,99.90
2018-08-12T18:55:13.611Z,99.90
2018-08-12T18:57:41.760Z,99.90
2018-08-12T19:00:14.296Z,99.90
2018-08-12T19:02:42.397Z,99.90
2018-08-12T19:05:11.775Z,99.90
2018-08-12T19:07:40.398Z,99.90
2018-08-12T19:10:10.140Z,99.90
2018-08-12T19:12:38.345Z,99.90
2018-08-12T19:15:07.854Z,99.90
2018-08-12T19:17:35.998Z,99.90
2018-08-12T19:20:05.273Z,99.90
2018-08-12T19:22:33.423Z,99.90
2018-08-12T19:25:01.534Z,99.90
2018-08-12T19:27:29.669Z,99.90
2018-08-12T19:29:57.773Z,99.90
2018-08-12T19:32:25.923Z,99.90
2018-08-12T19:34:54.043Z,99.90
2018-08-12T19:37:22.179Z,99.90
2018-08-12T19:39:50.330Z,99.90
2018-08-12T19:42:18.470Z,99.90
2018-08-12T19:44:46.574Z,99.90
2018-08-12T19:47:14.671Z,99.90
2018-08-12T19:49:42.785Z,99.90
2018-08-12T19:52:10.897Z,99.90
2018-08-12T19:54:39.075Z,99.90
2018-08-12T19:57:07.233Z,99.90
2018-08-12T19:59:35.401Z,99.90
2018-08-12T20:02:03.591Z,99.90
2018-08-12T20:04:31.765Z,99.90
2018-08-12T20:06:59.877Z,99.90
2018-08-12T20:09:28.011Z,99.90
2018-08-12T20:11:56.171Z,99.90
2018-08-12T20:14:24.290Z,99.90
2018-08-12T20:16:53.306Z,99.90
2018-08-12T20:19:21.429Z,99.90
2018-08-12T20:21:49.563Z,99.90
2018-08-12T20:24:17.696Z,99.90
2018-08-12T20:26:45.877Z,99.90
2018-08-12T20:29:14.016Z,99.90
2018-08-12T20:31:42.141Z,99.90
2018-08-12T20:34:14.262Z,99.90
2018-08-12T20:36:42.541Z,99.90
2018-08-12T20:39:12.347Z,99.90
2018-08-12T20:41:40.938Z,99.90
2018-08-12T20:44:09.049Z,99.90
2018-08-12T20:46:37.258Z,99.90
2018-08-12T20:49:05.382Z,99.90
2018-08-12T20:51:33.602Z,99.90
2018-08-12T20:54:01.725Z,99.90
2018-08-12T20:56:29.929Z,99.90
2018-08-12T20:58:58.063Z,99.90
2018-08-12T21:01:26.209Z,99.90
2018-08-12T21:03:54.362Z,99.90
2018-08-12T21:06:22.473Z,99.90
2018-08-12T21:08:50.653Z,99.90
2018-08-12T21:11:18.763Z,99.90
2018-08-12T21:13:46.969Z,99.90
2018-08-12T21:16:15.088Z,99.90
2018-08-12T21:18:43.262Z,99.90
2018-08-12T21:21:11.561Z,99.90
2018-08-12T21:23:39.729Z,99.90
2018-08-12T21:26:07.876Z,99.90
2018-08-12T21:28:36.093Z,99.90
2018-08-12T21:31:04.267Z,99.90
2018-08-12T21:33:32.514Z,99.90
2018-08-12T21:36:00.651Z,99.90
2018-08-12T21:38:28.797Z,99.90
2018-08-12T21:40:56.946Z,99.90
2018-08-12T21:43:25.046Z,99.90
2018-08-12T21:45:53.219Z,99.90
2018-08-12T21:48:21.352Z,99.90
2018-08-12T21:50:49.507Z,99.90
2018-08-12T21:53:17.653Z,99.90
2018-08-12T21:55:45.832Z,99.90
2018-08-12T21:58:14.197Z,99.90
2018-08-12T22:00:42.351Z,99.90
2018-08-12T22:03:10.503Z,99.90
2018-08-12T22:05:38.659Z,99.90
2018-08-12T22:08:07.783Z,99.90
2018-08-12T22:10:36.507Z,99.90
2018-08-12T22:13:04.722Z,99.90
2018-08-12T22:15:32.863Z,99.90
2018-08-12T22:18:01.055Z,99.90
2018-08-12T22:20:29.203Z,99.90
2018-08-12T22:22:57.336Z,99.90
2018-08-12T22:25:25.938Z,99.90
2018-08-12T22:27:54.067Z,99.90
2018-08-12T22:30:22.210Z,99.90
2018-08-12T22:32:50.339Z,99.90
2018-08-12T22:35:18.499Z,99.90
2018-08-12T22:37:46.637Z,99.90
2018-08-12T22:40:14.766Z,99.90
2018-08-12T22:42:42.903Z,99.90
2018-08-12T22:45:11.939Z,99.90
2018-08-12T22:47:40.720Z,99.90
2018-08-12T22:50:09.343Z,99.90
2018-08-12T22:52:37.562Z,99.90
2018-08-12T22:55:06.281Z,99.90
2018-08-12T22:57:34.506Z,99.90
2018-08-12T23:00:02.660Z,99.90
2018-08-12T23:02:30.799Z,99.90
2018-08-12T23:04:58.944Z,99.90
2018-08-12T23:07:27.087Z,99.90
2018-08-12T23:09:55.234Z,99.90
2018-08-12T23:12:23.390Z,99.90
2018-08-12T23:14:51.634Z,99.90
2018-08-12T23:17:19.770Z,99.90
2018-08-12T23:19:47.929Z,99.90
2018-08-12T23:22:16.144Z,99.90
2018-08-12T23:24:44.331Z,99.90
2018-08-12T23:27:12.483Z,99.90
2018-08-12T23:29:40.639Z,99.90
2018-08-12T23:32:08.769Z,99.90
2018-08-12T23:34:37.031Z,99.90
2018-08-12T23:37:05.165Z,99.90
2018-08-12T23:39:33.370Z,99.90
2018-08-12T23:42:01.567Z,99.90
2018-08-12T23:44:29.755Z,99.90
2018-08-12T23:46:57.934Z,99.90
2018-08-12T23:49:26.082Z,99.90
2018-08-12T23:51:54.226Z,99.90
2018-08-12T23:54:22.398Z,99.90
2018-08-12T23:56:50.578Z,99.90
2018-08-12T23:59:18.733Z,99.90
